sensor_id;sensor_type;location;lat;lon;timestamp;P1;durP1;ratioP1;P2;durP2;ratioP2
25846;SDS011;13676;50.168;8.568;2024-02-21T00:02:23;24.30;;;6.15;;
25846;SDS011;13676;50.168;8.568;2024-02-21T00:04:49;23.73;;;6.45;;
25846;SDS011;13676;50.168;8.568;2024-02-21T00:07:15;24.30;;;7.10;;
25846;SDS011;13676;50.168;8.568;2024-02-21T00:09:41;24.83;;;6.32;;
25846;SDS011;13676;50.168;8.568;2024-02-21T00:12:06;21.67;;;6.05;;
25846;SDS011;13676;50.168;8.568;2024-02-21T00:14:33;18.17;;;6.93;;
25846;SDS011;13676;50.168;8.568;2024-02-21T00:19:26;18.85;;;6.38;;
25846;SDS011;13676;50.168;8.568;2024-02-21T00:21:52;22.58;;;6.38;;
25846;SDS011;13676;50.168;8.568;2024-02-21T00:24:17;24.80;;;6.95;;
25846;SDS011;13676;50.168;8.568;2024-02-21T00:26:43;23.55;;;6.47;;
25846;SDS011;13676;50.168;8.568;2024-02-21T02:44:50;12.55;;;5.05;;
25846;SDS011;13676;50.168;8.568;2024-02-21T02:47:18;9.68;;;4.28;;
25846;SDS011;13676;50.168;8.568;2024-02-21T02:49:45;13.50;;;5.10;;
25846;SDS011;13676;50.168;8.568;2024-02-21T02:54:37;16.73;;;6.10;;
25846;SDS011;13676;50.168;8.568;2024-02-21T02:57:03;17.23;;;6.10;;
25846;SDS011;13676;50.168;8.568;2024-02-21T02:59:30;12.52;;;5.40;;
25846;SDS011;13676;50.168;8.568;2024-02-21T03:01:55;16.33;;;5.80;;
25846;SDS011;13676;50.168;8.568;2024-02-21T03:04:20;15.48;;;5.60;;
25846;SDS011;13676;50.168;8.568;2024-02-21T03:06:46;17.83;;;6.47;;
25846;SDS011;13676;50.168;8.568;2024-02-21T03:09:11;17.40;;;6.15;;
25846;SDS011;13676;50.168;8.568;2024-02-21T03:11:37;17.35;;;6.15;;
25846;SDS011;13676;50.168;8.568;2024-02-21T03:14:05;18.85;;;6.82;;
25846;SDS011;13676;50.168;8.568;2024-02-21T03:16:32;19.90;;;6.28;;
25846;SDS011;13676;50.168;8.568;2024-02-21T03:18:58;14.48;;;5.78;;
25846;SDS011;13676;50.168;8.568;2024-02-21T03:21:24;10.55;;;5.47;;
25846;SDS011;13676;50.168;8.568;2024-02-21T03:23:51;14.15;;;6.03;;
25846;SDS011;13676;50.168;8.568;2024-02-21T03:26:18;16.52;;;6.07;;
25846;SDS011;13676;50.168;8.568;2024-02-21T03:28:44;13.45;;;5.70;;
25846;SDS011;13676;50.168;8.568;2024-02-21T03:31:12;13.43;;;5.53;;
25846;SDS011;13676;50.168;8.568;2024-02-21T03:33:40;18.38;;;5.63;;
25846;SDS011;13676;50.168;8.568;2024-02-21T03:36:12;14.07;;;4.72;;
25846;SDS011;13676;50.168;8.568;2024-02-21T04:22:20;17.52;;;7.13;;
25846;SDS011;13676;50.168;8.568;2024-02-21T04:27:22;22.90;;;7.75;;
25846;SDS011;13676;50.168;8.568;2024-02-21T04:32:23;20.45;;;7.00;;
25846;SDS011;13676;50.168;8.568;2024-02-21T05:44:18;20.17;;;6.63;;
25846;SDS011;13676;50.168;8.568;2024-02-21T05:46:44;22.45;;;6.88;;
25846;SDS011;13676;50.168;8.568;2024-02-21T06:07:00;22.80;;;7.38;;
25846;SDS011;13676;50.168;8.568;2024-02-21T06:09:26;16.20;;;6.15;;
25846;SDS011;13676;50.168;8.568;2024-02-21T06:11:51;19.05;;;7.35;;
25846;SDS011;13676;50.168;8.568;2024-02-21T06:14:17;20.95;;;7.32;;
25846;SDS011;13676;50.168;8.568;2024-02-21T06:19:17;22.70;;;7.60;;
25846;SDS011;13676;50.168;8.568;2024-02-21T06:29:19;17.38;;;7.78;;
25846;SDS011;13676;50.168;8.568;2024-02-21T06:31:44;21.15;;;7.47;;
25846;SDS011;13676;50.168;8.568;2024-02-21T06:34:09;22.98;;;8.18;;
25846;SDS011;13676;50.168;8.568;2024-02-21T06:36:35;22.42;;;8.23;;
25846;SDS011;13676;50.168;8.568;2024-02-21T06:39:00;18.35;;;9.07;;
25846;SDS011;13676;50.168;8.568;2024-02-21T06:41:26;22.80;;;8.90;;
25846;SDS011;13676;50.168;8.568;2024-02-21T06:43:51;21.05;;;8.35;;
25846;SDS011;13676;50.168;8.568;2024-02-21T06:46:26;18.73;;;7.85;;
25846;SDS011;13676;50.168;8.568;2024-02-21T06:48:53;20.88;;;7.80;;
25846;SDS011;13676;50.168;8.568;2024-02-21T06:51:19;27.23;;;8.65;;
25846;SDS011;13676;50.168;8.568;2024-02-21T06:53:46;23.02;;;9.82;;
25846;SDS011;13676;50.168;8.568;2024-02-21T06:56:12;22.55;;;8.55;;
25846;SDS011;13676;50.168;8.568;2024-02-21T06:58:38;16.83;;;7.75;;
25846;SDS011;13676;50.168;8.568;2024-02-21T07:01:05;20.33;;;8.10;;
25846;SDS011;13676;50.168;8.568;2024-02-21T07:03:30;20.33;;;7.78;;
25846;SDS011;13676;50.168;8.568;2024-02-21T07:05:56;21.08;;;8.65;;
25846;SDS011;13676;50.168;8.568;2024-02-21T07:08:26;21.67;;;7.97;;
25846;SDS011;13676;50.168;8.568;2024-02-21T07:10:52;21.80;;;8.60;;
25846;SDS011;13676;50.168;8.568;2024-02-21T07:13:18;21.67;;;8.73;;
25846;SDS011;13676;50.168;8.568;2024-02-21T07:15:45;17.33;;;8.02;;
25846;SDS011;13676;50.168;8.568;2024-02-21T07:18:10;17.40;;;9.10;;
25846;SDS011;13676;50.168;8.568;2024-02-21T07:20:36;19.25;;;8.40;;
25846;SDS011;13676;50.168;8.568;2024-02-21T07:23:02;18.48;;;8.75;;
25846;SDS011;13676;50.168;8.568;2024-02-21T07:25:28;21.77;;;9.30;;
25846;SDS011;13676;50.168;8.568;2024-02-21T07:27:54;18.63;;;9.23;;
25846;SDS011;13676;50.168;8.568;2024-02-21T07:30:21;20.38;;;8.20;;
25846;SDS011;13676;50.168;8.568;2024-02-21T07:32:49;25.60;;;8.82;;
25846;SDS011;13676;50.168;8.568;2024-02-21T07:35:15;20.73;;;9.55;;
25846;SDS011;13676;50.168;8.568;2024-02-21T07:37:41;18.90;;;8.63;;
25846;SDS011;13676;50.168;8.568;2024-02-21T07:40:06;24.02;;;10.68;;
25846;SDS011;13676;50.168;8.568;2024-02-21T07:42:38;20.73;;;9.15;;
25846;SDS011;13676;50.168;8.568;2024-02-21T07:45:03;19.58;;;8.88;;
25846;SDS011;13676;50.168;8.568;2024-02-21T07:47:30;23.77;;;10.25;;
25846;SDS011;13676;50.168;8.568;2024-02-21T07:49:56;21.45;;;9.32;;
25846;SDS011;13676;50.168;8.568;2024-02-21T07:52:22;21.33;;;10.40;;
25846;SDS011;13676;50.168;8.568;2024-02-21T07:54:48;21.13;;;10.82;;
25846;SDS011;13676;50.168;8.568;2024-02-21T07:57:13;21.80;;;11.25;;
25846;SDS011;13676;50.168;8.568;2024-02-21T08:02:10;22.25;;;12.40;;
25846;SDS011;13676;50.168;8.568;2024-02-21T08:04:35;26.10;;;13.75;;
25846;SDS011;13676;50.168;8.568;2024-02-21T08:07:02;20.95;;;11.80;;
25846;SDS011;13676;50.168;8.568;2024-02-21T08:09:29;25.77;;;13.13;;
25846;SDS011;13676;50.168;8.568;2024-02-21T08:11:55;23.63;;;12.45;;
25846;SDS011;13676;50.168;8.568;2024-02-21T08:14:20;24.80;;;12.15;;
25846;SDS011;13676;50.168;8.568;2024-02-21T08:16:46;25.20;;;12.88;;
25846;SDS011;13676;50.168;8.568;2024-02-21T08:19:12;25.67;;;12.75;;
25846;SDS011;13676;50.168;8.568;2024-02-21T08:21:38;21.77;;;11.73;;
25846;SDS011;13676;50.168;8.568;2024-02-21T08:24:04;19.23;;;11.48;;
25846;SDS011;13676;50.168;8.568;2024-02-21T08:26:30;22.13;;;11.68;;
25846;SDS011;13676;50.168;8.568;2024-02-21T08:28:59;22.75;;;10.90;;
25846;SDS011;13676;50.168;8.568;2024-02-21T08:31:25;25.50;;;13.18;;
25846;SDS011;13676;50.168;8.568;2024-02-21T08:33:57;24.85;;;12.57;;
25846;SDS011;13676;50.168;8.568;2024-02-21T08:36:32;23.40;;;11.55;;
25846;SDS011;13676;50.168;8.568;2024-02-21T08:38:58;21.58;;;11.15;;
25846;SDS011;13676;50.168;8.568;2024-02-21T08:41:24;24.17;;;10.95;;
25846;SDS011;13676;50.168;8.568;2024-02-21T08:43:53;25.08;;;11.85;;
25846;SDS011;13676;50.168;8.568;2024-02-21T08:46:22;23.67;;;12.38;;
25846;SDS011;13676;50.168;8.568;2024-02-21T08:48:49;23.48;;;10.98;;
25846;SDS011;13676;50.168;8.568;2024-02-21T08:51:15;24.95;;;11.00;;
25846;SDS011;13676;50.168;8.568;2024-02-21T08:53:40;21.23;;;11.00;;
25846;SDS011;13676;50.168;8.568;2024-02-21T08:56:06;27.25;;;11.35;;
25846;SDS011;13676;50.168;8.568;2024-02-21T08:58:32;23.80;;;12.15;;
25846;SDS011;13676;50.168;8.568;2024-02-21T09:00:58;22.73;;;11.90;;
25846;SDS011;13676;50.168;8.568;2024-02-21T09:03:23;25.92;;;10.48;;
25846;SDS011;13676;50.168;8.568;2024-02-21T09:05:49;20.25;;;10.48;;
25846;SDS011;13676;50.168;8.568;2024-02-21T09:08:16;23.52;;;11.75;;
25846;SDS011;13676;50.168;8.568;2024-02-21T09:10:43;25.67;;;13.70;;
25846;SDS011;13676;50.168;8.568;2024-02-21T09:13:08;25.10;;;13.02;;
25846;SDS011;13676;50.168;8.568;2024-02-21T09:15:34;29.30;;;13.75;;
25846;SDS011;13676;50.168;8.568;2024-02-21T09:17:59;29.60;;;13.70;;
25846;SDS011;13676;50.168;8.568;2024-02-21T09:20:25;38.20;;;15.98;;
25846;SDS011;13676;50.168;8.568;2024-02-21T09:22:51;24.30;;;12.70;;
25846;SDS011;13676;50.168;8.568;2024-02-21T09:25:17;22.15;;;12.27;;
25846;SDS011;13676;50.168;8.568;2024-02-21T09:27:43;26.70;;;13.32;;
25846;SDS011;13676;50.168;8.568;2024-02-21T09:30:09;27.10;;;13.05;;
25846;SDS011;13676;50.168;8.568;2024-02-21T09:32:35;25.88;;;11.95;;
25846;SDS011;13676;50.168;8.568;2024-02-21T09:35:01;28.27;;;14.02;;
25846;SDS011;13676;50.168;8.568;2024-02-21T09:37:26;21.80;;;11.02;;
25846;SDS011;13676;50.168;8.568;2024-02-21T09:39:52;24.73;;;9.45;;
25846;SDS011;13676;50.168;8.568;2024-02-21T09:42:20;23.38;;;9.40;;
25846;SDS011;13676;50.168;8.568;2024-02-21T09:44:46;20.50;;;7.82;;
25846;SDS011;13676;50.168;8.568;2024-02-21T09:47:24;18.02;;;8.10;;
25846;SDS011;13676;50.168;8.568;2024-02-21T09:49:57;17.30;;;7.40;;
25846;SDS011;13676;50.168;8.568;2024-02-21T09:52:23;22.55;;;7.53;;
25846;SDS011;13676;50.168;8.568;2024-02-21T09:54:51;15.48;;;7.13;;
25846;SDS011;13676;50.168;8.568;2024-02-21T09:57:18;18.38;;;7.18;;
25846;SDS011;13676;50.168;8.568;2024-02-21T09:59:43;15.55;;;6.68;;
25846;SDS011;13676;50.168;8.568;2024-02-21T10:02:10;19.15;;;7.18;;
25846;SDS011;13676;50.168;8.568;2024-02-21T10:04:37;14.97;;;6.23;;
25846;SDS011;13676;50.168;8.568;2024-02-21T10:07:05;20.00;;;6.65;;
25846;SDS011;13676;50.168;8.568;2024-02-21T10:09:30;22.45;;;7.32;;
25846;SDS011;13676;50.168;8.568;2024-02-21T10:11:56;14.27;;;5.82;;
25846;SDS011;13676;50.168;8.568;2024-02-21T10:14:34;10.75;;;5.68;;
25846;SDS011;13676;50.168;8.568;2024-02-21T10:16:59;14.80;;;6.53;;
25846;SDS011;13676;50.168;8.568;2024-02-21T10:19:27;16.38;;;6.10;;
25846;SDS011;13676;50.168;8.568;2024-02-21T10:22:02;17.27;;;5.82;;
25846;SDS011;13676;50.168;8.568;2024-02-21T10:24:34;15.70;;;5.75;;
25846;SDS011;13676;50.168;8.568;2024-02-21T10:29:33;12.50;;;4.95;;
25846;SDS011;13676;50.168;8.568;2024-02-21T10:34:33;16.83;;;5.10;;
25846;SDS011;13676;50.168;8.568;2024-02-21T10:37:02;14.32;;;5.03;;
25846;SDS011;13676;50.168;8.568;2024-02-21T10:39:28;14.32;;;4.93;;
25846;SDS011;13676;50.168;8.568;2024-02-21T10:41:56;16.05;;;4.70;;
25846;SDS011;13676;50.168;8.568;2024-02-21T10:44:26;13.23;;;4.88;;
25846;SDS011;13676;50.168;8.568;2024-02-21T10:46:54;18.30;;;4.63;;
25846;SDS011;13676;50.168;8.568;2024-02-21T10:49:24;19.00;;;4.85;;
25846;SDS011;13676;50.168;8.568;2024-02-21T10:51:52;12.32;;;3.85;;
25846;SDS011;13676;50.168;8.568;2024-02-21T10:54:44;16.48;;;4.90;;
25846;SDS011;13676;50.168;8.568;2024-02-21T10:57:13;12.95;;;3.95;;
25846;SDS011;13676;50.168;8.568;2024-02-21T10:59:41;13.77;;;4.32;;
25846;SDS011;13676;50.168;8.568;2024-02-21T11:02:09;18.10;;;4.70;;
25846;SDS011;13676;50.168;8.568;2024-02-21T11:04:34;13.18;;;4.32;;
25846;SDS011;13676;50.168;8.568;2024-02-21T11:07:03;12.85;;;3.95;;
25846;SDS011;13676;50.168;8.568;2024-02-21T11:09:30;13.35;;;4.22;;
25846;SDS011;13676;50.168;8.568;2024-02-21T11:12:19;15.65;;;4.78;;
25846;SDS011;13676;50.168;8.568;2024-02-21T11:14:46;10.40;;;4.30;;
25846;SDS011;13676;50.168;8.568;2024-02-21T11:17:19;17.88;;;4.95;;
25846;SDS011;13676;50.168;8.568;2024-02-21T11:19:52;14.93;;;4.50;;
25846;SDS011;13676;50.168;8.568;2024-02-21T11:22:17;12.32;;;3.83;;
25846;SDS011;13676;50.168;8.568;2024-02-21T11:24:44;18.50;;;4.45;;
25846;SDS011;13676;50.168;8.568;2024-02-21T11:27:13;16.83;;;4.45;;
25846;SDS011;13676;50.168;8.568;2024-02-21T11:29:49;19.15;;;4.43;;
25846;SDS011;13676;50.168;8.568;2024-02-21T11:32:19;14.50;;;4.50;;
25846;SDS011;13676;50.168;8.568;2024-02-21T11:35:01;18.50;;;4.90;;
25846;SDS011;13676;50.168;8.568;2024-02-21T11:37:27;13.05;;;3.65;;
25846;SDS011;13676;50.168;8.568;2024-02-21T11:39:54;20.42;;;5.43;;
25846;SDS011;13676;50.168;8.568;2024-02-21T11:42:20;12.48;;;4.95;;
25846;SDS011;13676;50.168;8.568;2024-02-21T11:44:45;12.02;;;4.00;;
25846;SDS011;13676;50.168;8.568;2024-02-21T11:47:11;19.20;;;4.18;;
25846;SDS011;13676;50.168;8.568;2024-02-21T11:49:37;7.35;;;3.30;;
25846;SDS011;13676;50.168;8.568;2024-02-21T11:52:06;16.60;;;3.70;;
25846;SDS011;13676;50.168;8.568;2024-02-21T11:54:32;14.57;;;4.60;;
25846;SDS011;13676;50.168;8.568;2024-02-21T11:56:58;15.77;;;4.47;;
25846;SDS011;13676;50.168;8.568;2024-02-21T11:59:25;14.45;;;3.92;;
25846;SDS011;13676;50.168;8.568;2024-02-21T12:01:50;13.40;;;4.00;;
25846;SDS011;13676;50.168;8.568;2024-02-21T12:04:19;10.10;;;3.47;;
25846;SDS011;13676;50.168;8.568;2024-02-21T12:06:45;23.77;;;4.25;;
25846;SDS011;13676;50.168;8.568;2024-02-21T12:09:14;13.55;;;3.60;;
25846;SDS011;13676;50.168;8.568;2024-02-21T12:11:41;13.98;;;4.32;;
25846;SDS011;13676;50.168;8.568;2024-02-21T12:14:06;15.25;;;4.03;;
25846;SDS011;13676;50.168;8.568;2024-02-21T12:16:34;12.90;;;3.92;;
25846;SDS011;13676;50.168;8.568;2024-02-21T12:19:01;17.92;;;4.38;;
25846;SDS011;13676;50.168;8.568;2024-02-21T12:21:32;13.98;;;4.07;;
25846;SDS011;13676;50.168;8.568;2024-02-21T12:23:59;10.52;;;3.50;;
25846;SDS011;13676;50.168;8.568;2024-02-21T12:26:25;10.20;;;3.38;;
25846;SDS011;13676;50.168;8.568;2024-02-21T12:28:51;14.02;;;3.88;;
25846;SDS011;13676;50.168;8.568;2024-02-21T12:31:18;11.38;;;3.45;;
25846;SDS011;13676;50.168;8.568;2024-02-21T12:33:43;18.40;;;4.40;;
25846;SDS011;13676;50.168;8.568;2024-02-21T12:36:09;12.68;;;3.70;;
25846;SDS011;13676;50.168;8.568;2024-02-21T12:38:37;11.70;;;4.00;;
25846;SDS011;13676;50.168;8.568;2024-02-21T12:41:03;16.23;;;3.70;;
25846;SDS011;13676;50.168;8.568;2024-02-21T12:43:30;12.80;;;3.63;;
25846;SDS011;13676;50.168;8.568;2024-02-21T12:45:55;13.35;;;3.20;;
25846;SDS011;13676;50.168;8.568;2024-02-21T12:48:21;11.95;;;3.45;;
25846;SDS011;13676;50.168;8.568;2024-02-21T12:50:48;14.05;;;4.00;;
25846;SDS011;13676;50.168;8.568;2024-02-21T12:53:18;13.68;;;3.72;;
25846;SDS011;13676;50.168;8.568;2024-02-21T12:55:57;15.35;;;4.22;;
25846;SDS011;13676;50.168;8.568;2024-02-21T12:58:22;17.75;;;4.22;;
25846;SDS011;13676;50.168;8.568;2024-02-21T13:00:48;14.60;;;3.70;;
25846;SDS011;13676;50.168;8.568;2024-02-21T13:03:14;11.63;;;3.47;;
25846;SDS011;13676;50.168;8.568;2024-02-21T13:05:41;17.05;;;5.10;;
25846;SDS011;13676;50.168;8.568;2024-02-21T13:08:06;16.35;;;4.90;;
25846;SDS011;13676;50.168;8.568;2024-02-21T13:10:33;13.93;;;4.45;;
25846;SDS011;13676;50.168;8.568;2024-02-21T13:13:00;12.60;;;4.20;;
25846;SDS011;13676;50.168;8.568;2024-02-21T13:15:26;15.63;;;3.88;;
25846;SDS011;13676;50.168;8.568;2024-02-21T13:17:53;16.13;;;3.70;;
25846;SDS011;13676;50.168;8.568;2024-02-21T13:20:19;14.10;;;4.55;;
25846;SDS011;13676;50.168;8.568;2024-02-21T13:22:46;12.20;;;3.70;;
25846;SDS011;13676;50.168;8.568;2024-02-21T13:25:12;14.27;;;3.45;;
25846;SDS011;13676;50.168;8.568;2024-02-21T13:27:44;11.68;;;3.55;;
25846;SDS011;13676;50.168;8.568;2024-02-21T13:30:10;13.77;;;3.97;;
25846;SDS011;13676;50.168;8.568;2024-02-21T13:32:36;13.20;;;3.83;;
25846;SDS011;13676;50.168;8.568;2024-02-21T13:35:02;17.60;;;4.18;;
25846;SDS011;13676;50.168;8.568;2024-02-21T13:37:29;15.75;;;4.22;;
25846;SDS011;13676;50.168;8.568;2024-02-21T13:39:54;11.35;;;3.75;;
25846;SDS011;13676;50.168;8.568;2024-02-21T13:42:20;12.32;;;3.70;;
25846;SDS011;13676;50.168;8.568;2024-02-21T13:44:45;13.68;;;4.05;;
25846;SDS011;13676;50.168;8.568;2024-02-21T13:47:14;10.38;;;3.47;;
25846;SDS011;13676;50.168;8.568;2024-02-21T13:49:40;17.75;;;4.45;;
25846;SDS011;13676;50.168;8.568;2024-02-21T13:52:06;12.88;;;3.63;;
25846;SDS011;13676;50.168;8.568;2024-02-21T13:54:31;15.05;;;3.75;;
25846;SDS011;13676;50.168;8.568;2024-02-21T13:56:57;9.90;;;3.85;;
25846;SDS011;13676;50.168;8.568;2024-02-21T13:59:23;11.65;;;3.60;;
25846;SDS011;13676;50.168;8.568;2024-02-21T14:01:50;14.18;;;4.20;;
25846;SDS011;13676;50.168;8.568;2024-02-21T14:04:15;14.65;;;3.78;;
25846;SDS011;13676;50.168;8.568;2024-02-21T14:06:41;12.80;;;3.83;;
25846;SDS011;13676;50.168;8.568;2024-02-21T14:09:14;13.93;;;3.72;;
25846;SDS011;13676;50.168;8.568;2024-02-21T14:11:39;10.00;;;3.25;;
25846;SDS011;13676;50.168;8.568;2024-02-21T14:14:06;13.07;;;2.90;;
25846;SDS011;13676;50.168;8.568;2024-02-21T14:16:32;12.73;;;3.53;;
25846;SDS011;13676;50.168;8.568;2024-02-21T14:18:59;10.93;;;3.13;;
25846;SDS011;13676;50.168;8.568;2024-02-21T14:21:24;11.40;;;2.90;;
25846;SDS011;13676;50.168;8.568;2024-02-21T14:23:51;9.43;;;2.85;;
25846;SDS011;13676;50.168;8.568;2024-02-21T14:26:18;8.93;;;2.72;;
25846;SDS011;13676;50.168;8.568;2024-02-21T14:28:45;10.80;;;2.97;;
25846;SDS011;13676;50.168;8.568;2024-02-21T14:31:11;11.55;;;3.60;;
25846;SDS011;13676;50.168;8.568;2024-02-21T14:33:37;12.70;;;2.85;;
25846;SDS011;13676;50.168;8.568;2024-02-21T14:36:04;8.38;;;2.65;;
25846;SDS011;13676;50.168;8.568;2024-02-21T14:38:31;9.32;;;2.50;;
25846;SDS011;13676;50.168;8.568;2024-02-21T14:40:56;12.48;;;3.30;;
25846;SDS011;13676;50.168;8.568;2024-02-21T14:43:22;15.00;;;3.42;;
25846;SDS011;13676;50.168;8.568;2024-02-21T14:45:47;10.52;;;3.17;;
25846;SDS011;13676;50.168;8.568;2024-02-21T14:48:13;12.15;;;3.40;;
25846;SDS011;13676;50.168;8.568;2024-02-21T14:50:39;15.15;;;2.85;;
25846;SDS011;13676;50.168;8.568;2024-02-21T14:53:04;11.68;;;3.30;;
25846;SDS011;13676;50.168;8.568;2024-02-21T14:55:30;12.63;;;2.85;;
25846;SDS011;13676;50.168;8.568;2024-02-21T14:57:56;9.45;;;2.40;;
25846;SDS011;13676;50.168;8.568;2024-02-21T15:00:21;12.00;;;3.22;;
25846;SDS011;13676;50.168;8.568;2024-02-21T15:02:56;11.45;;;2.92;;
25846;SDS011;13676;50.168;8.568;2024-02-21T15:05:22;14.40;;;3.28;;
25846;SDS011;13676;50.168;8.568;2024-02-21T15:07:48;10.63;;;2.75;;
25846;SDS011;13676;50.168;8.568;2024-02-21T15:10:14;9.53;;;2.63;;
25846;SDS011;13676;50.168;8.568;2024-02-21T15:12:40;13.00;;;2.47;;
25846;SDS011;13676;50.168;8.568;2024-02-21T15:15:07;11.13;;;2.88;;
25846;SDS011;13676;50.168;8.568;2024-02-21T15:17:35;8.07;;;2.35;;
25846;SDS011;13676;50.168;8.568;2024-02-21T15:20:00;8.05;;;2.35;;
25846;SDS011;13676;50.168;8.568;2024-02-21T15:22:26;9.77;;;2.65;;
25846;SDS011;13676;50.168;8.568;2024-02-21T15:24:52;13.93;;;3.10;;
25846;SDS011;13676;50.168;8.568;2024-02-21T15:27:20;10.90;;;2.95;;
25846;SDS011;13676;50.168;8.568;2024-02-21T15:29:45;9.63;;;3.17;;
25846;SDS011;13676;50.168;8.568;2024-02-21T15:32:11;10.95;;;3.50;;
25846;SDS011;13676;50.168;8.568;2024-02-21T15:34:36;14.95;;;3.70;;
25846;SDS011;13676;50.168;8.568;2024-02-21T15:37:01;10.73;;;2.75;;
25846;SDS011;13676;50.168;8.568;2024-02-21T15:39:30;7.22;;;2.20;;
25846;SDS011;13676;50.168;8.568;2024-02-21T15:41:55;10.02;;;3.30;;
25846;SDS011;13676;50.168;8.568;2024-02-21T15:44:21;7.32;;;2.40;;
25846;SDS011;13676;50.168;8.568;2024-02-21T15:46:47;14.43;;;3.45;;
25846;SDS011;13676;50.168;8.568;2024-02-21T15:49:13;10.25;;;3.15;;
25846;SDS011;13676;50.168;8.568;2024-02-21T15:51:39;14.23;;;3.58;;
25846;SDS011;13676;50.168;8.568;2024-02-21T15:59:02;11.40;;;3.60;;
25846;SDS011;13676;50.168;8.568;2024-02-21T16:04:05;12.88;;;3.10;;
25846;SDS011;13676;50.168;8.568;2024-02-21T16:06:34;11.40;;;3.53;;
25846;SDS011;13676;50.168;8.568;2024-02-21T16:19:13;11.55;;;3.05;;
25846;SDS011;13676;50.168;8.568;2024-02-21T16:21:39;14.02;;;4.07;;
25846;SDS011;13676;50.168;8.568;2024-02-21T16:24:05;10.95;;;3.35;;
25846;SDS011;13676;50.168;8.568;2024-02-21T16:26:34;12.85;;;3.30;;
25846;SDS011;13676;50.168;8.568;2024-02-21T16:29:00;11.55;;;3.53;;
25846;SDS011;13676;50.168;8.568;2024-02-21T16:31:27;11.32;;;3.15;;
25846;SDS011;13676;50.168;8.568;2024-02-21T16:33:53;10.57;;;3.30;;
25846;SDS011;13676;50.168;8.568;2024-02-21T16:38:46;12.27;;;3.33;;
25846;SDS011;13676;50.168;8.568;2024-02-21T16:41:11;13.88;;;3.83;;
25846;SDS011;13676;50.168;8.568;2024-02-21T16:43:37;15.48;;;4.22;;
25846;SDS011;13676;50.168;8.568;2024-02-21T16:46:02;18.35;;;3.83;;
25846;SDS011;13676;50.168;8.568;2024-02-21T16:48:28;11.05;;;3.85;;
25846;SDS011;13676;50.168;8.568;2024-02-21T16:50:54;15.52;;;3.67;;
25846;SDS011;13676;50.168;8.568;2024-02-21T16:55:47;15.45;;;3.67;;
25846;SDS011;13676;50.168;8.568;2024-02-21T16:58:13;18.98;;;3.88;;
25846;SDS011;13676;50.168;8.568;2024-02-21T17:00:40;17.75;;;4.45;;
25846;SDS011;13676;50.168;8.568;2024-02-21T17:03:06;14.35;;;4.15;;
25846;SDS011;13676;50.168;8.568;2024-02-21T17:05:32;10.38;;;3.75;;
25846;SDS011;13676;50.168;8.568;2024-02-21T17:08:01;13.45;;;3.83;;
25846;SDS011;13676;50.168;8.568;2024-02-21T17:10:26;13.20;;;3.70;;
25846;SDS011;13676;50.168;8.568;2024-02-21T17:17:54;14.90;;;3.40;;
25846;SDS011;13676;50.168;8.568;2024-02-21T17:25:22;11.65;;;3.85;;
25846;SDS011;13676;50.168;8.568;2024-02-21T17:27:47;10.63;;;3.47;;
25846;SDS011;13676;50.168;8.568;2024-02-21T17:30:16;11.65;;;3.83;;
25846;SDS011;13676;50.168;8.568;2024-02-21T17:32:41;13.90;;;4.18;;
25846;SDS011;13676;50.168;8.568;2024-02-21T17:35:07;12.65;;;3.83;;
25846;SDS011;13676;50.168;8.568;2024-02-21T17:37:32;15.70;;;3.85;;
25846;SDS011;13676;50.168;8.568;2024-02-21T17:40:01;12.70;;;3.33;;
25846;SDS011;13676;50.168;8.568;2024-02-21T17:42:33;11.35;;;4.20;;
25846;SDS011;13676;50.168;8.568;2024-02-21T17:44:59;14.05;;;3.47;;
25846;SDS011;13676;50.168;8.568;2024-02-21T17:47:26;12.30;;;3.75;;
25846;SDS011;13676;50.168;8.568;2024-02-21T17:49:51;9.15;;;3.17;;
25846;SDS011;13676;50.168;8.568;2024-02-21T17:52:17;14.15;;;3.60;;
25846;SDS011;13676;50.168;8.568;2024-02-21T17:54:43;15.13;;;4.30;;
25846;SDS011;13676;50.168;8.568;2024-02-21T17:57:11;14.75;;;4.07;;
25846;SDS011;13676;50.168;8.568;2024-02-21T17:59:41;16.73;;;4.30;;
25846;SDS011;13676;50.168;8.568;2024-02-21T18:02:08;8.43;;;3.40;;
25846;SDS011;13676;50.168;8.568;2024-02-21T18:04:34;12.27;;;3.40;;
25846;SDS011;13676;50.168;8.568;2024-02-21T18:07:01;12.18;;;3.60;;
25846;SDS011;13676;50.168;8.568;2024-02-21T18:09:28;12.82;;;4.20;;
25846;SDS011;13676;50.168;8.568;2024-02-21T18:11:55;10.18;;;3.38;;
25846;SDS011;13676;50.168;8.568;2024-02-21T18:14:21;14.40;;;4.47;;
25846;SDS011;13676;50.168;8.568;2024-02-21T18:16:46;10.77;;;3.70;;
25846;SDS011;13676;50.168;8.568;2024-02-21T18:19:14;16.55;;;3.95;;
25846;SDS011;13676;50.168;8.568;2024-02-21T18:24:15;12.82;;;4.57;;
25846;SDS011;13676;50.168;8.568;2024-02-21T18:26:40;13.82;;;4.13;;
25846;SDS011;13676;50.168;8.568;2024-02-21T18:29:07;17.90;;;4.32;;
25846;SDS011;13676;50.168;8.568;2024-02-21T18:31:34;13.30;;;4.13;;
25846;SDS011;13676;50.168;8.568;2024-02-21T18:34:01;14.77;;;4.43;;
25846;SDS011;13676;50.168;8.568;2024-02-21T18:36:29;15.57;;;4.45;;
25846;SDS011;13676;50.168;8.568;2024-02-21T18:38:55;15.77;;;4.68;;
25846;SDS011;13676;50.168;8.568;2024-02-21T18:41:21;14.70;;;4.40;;
25846;SDS011;13676;50.168;8.568;2024-02-21T18:43:48;13.52;;;4.60;;
25846;SDS011;13676;50.168;8.568;2024-02-21T18:46:16;12.15;;;4.45;;
25846;SDS011;13676;50.168;8.568;2024-02-21T18:48:43;15.43;;;4.82;;
25846;SDS011;13676;50.168;8.568;2024-02-21T18:51:13;13.75;;;4.60;;
25846;SDS011;13676;50.168;8.568;2024-02-21T18:53:40;16.98;;;4.00;;
25846;SDS011;13676;50.168;8.568;2024-02-21T18:56:07;11.68;;;4.38;;
25846;SDS011;13676;50.168;8.568;2024-02-21T18:58:34;9.50;;;3.53;;
25846;SDS011;13676;50.168;8.568;2024-02-21T19:01:00;11.00;;;3.65;;
25846;SDS011;13676;50.168;8.568;2024-02-21T19:03:26;10.25;;;3.72;;
25846;SDS011;13676;50.168;8.568;2024-02-21T19:05:53;11.32;;;3.03;;
25846;SDS011;13676;50.168;8.568;2024-02-21T19:10:53;12.55;;;3.53;;
25846;SDS011;13676;50.168;8.568;2024-02-21T19:16:19;9.95;;;3.40;;
25846;SDS011;13676;50.168;8.568;2024-02-21T19:21:14;16.25;;;4.53;;
25846;SDS011;13676;50.168;8.568;2024-02-21T19:23:40;11.70;;;3.28;;
25846;SDS011;13676;50.168;8.568;2024-02-21T19:26:09;12.80;;;3.60;;
25846;SDS011;13676;50.168;8.568;2024-02-21T19:36:13;12.80;;;3.83;;
25846;SDS011;13676;50.168;8.568;2024-02-21T19:38:40;10.57;;;3.10;;
25846;SDS011;13676;50.168;8.568;2024-02-21T19:41:06;10.63;;;3.22;;
25846;SDS011;13676;50.168;8.568;2024-02-21T19:43:32;13.23;;;3.70;;
25846;SDS011;13676;50.168;8.568;2024-02-21T19:45:57;10.50;;;3.78;;
25846;SDS011;13676;50.168;8.568;2024-02-21T19:48:23;14.82;;;3.95;;
25846;SDS011;13676;50.168;8.568;2024-02-21T19:50:49;12.52;;;3.75;;
25846;SDS011;13676;50.168;8.568;2024-02-21T19:53:16;11.38;;;3.88;;
25846;SDS011;13676;50.168;8.568;2024-02-21T19:55:44;8.15;;;3.35;;
25846;SDS011;13676;50.168;8.568;2024-02-21T19:58:09;11.05;;;3.85;;
25846;SDS011;13676;50.168;8.568;2024-02-21T20:00:36;11.05;;;3.10;;
25846;SDS011;13676;50.168;8.568;2024-02-21T20:05:28;11.10;;;3.60;;
25846;SDS011;13676;50.168;8.568;2024-02-21T20:07:55;10.00;;;4.22;;
25846;SDS011;13676;50.168;8.568;2024-02-21T20:10:20;8.80;;;3.92;;
25846;SDS011;13676;50.168;8.568;2024-02-21T20:12:47;13.45;;;3.83;;
25846;SDS011;13676;50.168;8.568;2024-02-21T20:15:13;11.32;;;4.13;;
25846;SDS011;13676;50.168;8.568;2024-02-21T20:17:40;10.88;;;4.03;;
25846;SDS011;13676;50.168;8.568;2024-02-21T20:20:09;17.60;;;4.18;;